Time;durP1;ratioP1;P1;durP2;ratioP2;P2;SDS_P1;SDS_P2;PMS_P1;PMS_P2;Temp;Humidity;BMP_temperature;BMP_pressure;BME280_temperature;BME280_humidity;BME280_pressure;Samples;Min_cycle;Max_cycle;Signal;HPM_P1;HPM_P2
2022/01/16 00:00:57;;;;;;;20.73;6.40;;;3.10;99.90;;;;;;5107686;29;20442;-50
2022/01/16 00:06:17;;;;;;;20.60;7.50;;;3.10;99.90;;;;;;5109826;29;20464;-48
2022/01/16 00:08:47;;;;;;;22.83;7.93;;;3.10;99.90;;;;;;5124270;28;20450;-51
2022/01/16 00:11:18;;;;;;;24.57;8.37;;;3.10;99.90;;;;;;5110638;29;20190;-50
2022/01/16 00:13:49;;;;;;;32.17;12.37;;;3.10;99.90;;;;;;5127355;28;20767;-50
2022/01/16 00:16:19;;;;;;;19.03;7.97;;;3.10;99.90;;;;;;5107290;28;20214;-49
2022/01/16 00:18:52;;;;;;;17.73;7.20;;;3.10;99.90;;;;;;5123842;28;23437;-48
2022/01/16 00:21:36;;;;;;;21.43;10.67;;;3.10;99.90;;;;;;5126267;28;20265;-51
2022/01/16 00:24:08;;;;;;;24.43;8.63;;;3.20;99.90;;;;;;5097998;28;20434;-50
2022/01/16 00:26:40;;;;;;;31.80;13.97;;;3.20;99.90;;;;;;5127526;28;20462;-50
2022/01/16 00:29:12;;;;;;;37.90;10.30;;;3.30;99.90;;;;;;5132640;28;20448;-52
2022/01/16 00:31:43;;;;;;;25.93;10.10;;;3.20;99.90;;;;;;5128620;28;20452;-51
2022/01/16 00:34:13;;;;;;;27.80;8.47;;;3.20;99.90;;;;;;5125607;28;20441;-51
2022/01/16 00:36:44;;;;;;;23.37;8.30;;;3.10;99.90;;;;;;5127230;28;20218;-48
2022/01/16 00:39:14;;;;;;;22.53;8.40;;;3.20;99.90;;;;;;5126405;29;20261;-52
2022/01/16 00:41:46;;;;;;;22.13;9.50;;;3.10;99.90;;;;;;5126357;28;20217;-50
2022/01/16 00:44:17;;;;;;;26.60;10.43;;;3.10;99.90;;;;;;5102680;29;20197;-50
2022/01/16 00:46:48;;;;;;;26.10;9.97;;;3.30;99.90;;;;;;5110459;28;20834;-50
2022/01/16 00:49:18;;;;;;;26.13;10.37;;;3.20;99.90;;;;;;5125733;28;20250;-50
2022/01/16 00:51:49;;;;;;;28.83;10.60;;;3.10;99.90;;;;;;5108687;28;20274;-50
2022/01/16 00:54:19;;;;;;;25.33;12.80;;;3.10;99.90;;;;;;5126400;28;20201;-49
2022/01/16 00:56:50;;;;;;;26.80;11.77;;;3.10;99.90;;;;;;5125579;28;20289;-50
2022/01/16 00:59:20;;;;;;;15.43;7.07;;;3.10;99.90;;;;;;5125588;28;20190;-51
2022/01/16 01:01:51;;;;;;;17.50;7.20;;;3.20;99.90;;;;;;5103648;29;20264;-49
2022/01/16 01:04:22;;;;;;;29.97;8.67;;;3.20;99.90;;;;;;5115241;28;20190;-50
2022/01/16 01:06:53;;;;;;;15.43;7.10;;;3.30;99.90;;;;;;5108329;29;20492;-51
2022/01/16 01:09:24;;;;;;;19.80;8.30;;;3.30;99.90;;;;;;5114887;28;20190;-49
2022/01/16 01:11:55;;;;;;;28.30;8.90;;;3.30;99.90;;;;;;5126972;28;20480;-49
2022/01/16 01:14:27;;;;;;;32.63;8.67;;;3.10;99.90;;;;;;5108018;28;20561;-50
2022/01/16 01:17:01;;;;;;;19.57;6.43;;;3.00;99.90;;;;;;5107361;29;20709;-49
2022/01/16 01:19:34;;;;;;;17.13;6.90;;;2.90;99.90;;;;;;5126994;29;20441;-50
2022/01/16 01:22:06;;;;;;;19.37;6.77;;;2.80;99.90;;;;;;5127484;28;20497;-50
2022/01/16 01:24:36;;;;;;;24.03;7.73;;;2.80;99.90;;;;;;5127193;28;20801;-50
2022/01/16 01:27:17;;;;;;;19.33;7.90;;;2.70;99.90;;;;;;5124610;28;20525;-51
2022/01/16 01:29:55;;;;;;;39.93;9.20;;;2.80;99.90;;;;;;5108641;28;20268;-49
2022/01/16 01:32:26;;;;;;;22.20;7.57;;;2.80;99.90;;;;;;5127046;29;20434;-48
2022/01/16 01:34:56;;;;;;;21.93;7.17;;;2.80;99.90;;;;;;5121902;28;20490;-51
2022/01/16 01:37:27;;;;;;;17.70;7.23;;;2.80;99.90;;;;;;5126737;28;20217;-50
2022/01/16 01:39:58;;;;;;;20.13;7.73;;;2.80;99.90;;;;;;5124653;28;20186;-50
2022/01/16 01:42:34;;;;;;;18.20;7.27;;;2.70;99.90;;;;;;5130311;28;20212;-51
2022/01/16 01:51:04;;;;;;;19.57;8.03;;;2.60;99.90;;;;;;5125054;28;20968;-50
2022/01/16 01:53:37;;;;;;;20.53;7.63;;;2.60;99.90;;;;;;5119768;28;20444;-49
2022/01/16 01:56:11;;;;;;;32.93;8.03;;;2.60;99.90;;;;;;5120088;28;20572;-50
2022/01/16 01:58:41;;;;;;;35.70;8.43;;;2.50;99.90;;;;;;5120723;28;20498;-51
2022/01/16 02:01:12;;;;;;;13.90;6.70;;;2.50;99.90;;;;;;5112312;29;20469;-50
2022/01/16 02:03:43;;;;;;;29.13;9.17;;;2.40;99.90;;;;;;5126198;29;20221;-50
2022/01/16 02:06:16;;;;;;;33.13;9.33;;;2.40;99.90;;;;;;5107824;28;20625;-48
2022/01/16 02:08:53;;;;;;;23.10;7.90;;;2.40;99.90;;;;;;5127365;29;20618;-48
2022/01/16 02:11:29;;;;;;;22.73;8.43;;;2.50;99.90;;;;;;5104805;29;21053;-50
2022/01/16 02:14:15;;;;;;;35.87;8.80;;;2.50;99.90;;;;;;5125106;28;20438;-50
2022/01/16 02:28:21;;;;;;;20.97;8.07;;;2.50;99.90;;;;;;5108661;29;20438;-51
2022/01/16 02:36:28;;;;;;;22.57;8.17;;;2.60;99.90;;;;;;5122989;28;20485;-49
2022/01/16 02:39:12;;;;;;;23.50;7.93;;;2.70;99.90;;;;;;5109220;28;20489;-50
2022/01/16 02:41:47;;;;;;;25.70;7.00;;;2.60;99.90;;;;;;5124883;28;21011;-50
2022/01/16 02:44:33;;;;;;;19.30;8.03;;;2.60;99.90;;;;;;5125255;28;20952;-50
2022/01/16 02:47:04;;;;;;;31.20;8.27;;;2.60;99.90;;;;;;5109304;29;20469;-50
2022/01/16 02:49:34;;;;;;;23.73;7.43;;;2.60;99.90;;;;;;5123090;28;20430;-51
2022/01/16 02:52:09;;;;;;;28.43;7.90;;;2.70;99.90;;;;;;5122919;28;20280;-49
2022/01/16 02:54:41;;;;;;;21.47;8.10;;;2.60;99.90;;;;;;5124985;28;20178;-51
2022/01/16 02:57:14;;;;;;;23.47;7.67;;;2.50;99.90;;;;;;5123232;28;20473;-50
2022/01/16 02:59:48;;;;;;;15.87;6.83;;;2.50;99.90;;;;;;5125730;29;20524;-49
2022/01/16 03:02:21;;;;;;;17.43;7.00;;;2.40;99.90;;;;;;5127572;29;20430;-49
2022/01/16 03:04:53;;;;;;;23.40;8.43;;;2.30;99.90;;;;;;5124021;29;20509;-51
2022/01/16 03:07:24;;;;;;;25.50;9.20;;;2.30;99.90;;;;;;5127797;28;20520;-50
2022/01/16 03:12:56;;;;;;;15.00;7.10;;;2.10;99.90;;;;;;5122535;28;21031;-51
2022/01/16 03:15:27;;;;;;;18.50;8.50;;;2.10;99.90;;;;;;5108513;28;20513;-49
2022/01/16 03:23:22;;;;;;;24.30;6.77;;;1.80;99.90;;;;;;5121477;28;20186;-50
2022/01/16 03:25:53;;;;;;;16.20;7.33;;;1.80;99.90;;;;;;5102160;28;20956;-49
2022/01/16 03:28:25;;;;;;;19.43;7.93;;;1.80;99.90;;;;;;5124422;28;20464;-50
2022/01/16 03:30:56;;;;;;;32.77;8.93;;;1.80;99.90;;;;;;5119161;28;20433;-48
2022/01/16 03:33:26;;;;;;;37.60;9.20;;;1.70;99.90;;;;;;5127864;29;20508;-49
2022/01/16 03:35:57;;;;;;;31.43;8.70;;;1.70;99.90;;;;;;5126540;28;20218;-48
2022/01/16 03:38:27;;;;;;;18.17;8.03;;;1.50;99.90;;;;;;5097321;29;20241;-50
2022/01/16 03:40:59;;;;;;;15.87;6.33;;;1.50;99.90;;;;;;5124878;28;20178;-50
2022/01/16 03:43:30;;;;;;;38.33;7.30;;;1.50;99.90;;;;;;5123428;28;20645;-50
2022/01/16 03:46:00;;;;;;;23.37;6.60;;;1.60;99.90;;;;;;5117345;28;20545;-49
2022/01/16 03:48:31;;;;;;;19.80;6.80;;;1.50;99.90;;;;;;5131494;28;20651;-50
2022/01/16 03:51:02;;;;;;;24.30;6.70;;;1.50;99.90;;;;;;5120944;28;20659;-50
2022/01/16 03:53:33;;;;;;;17.97;5.80;;;1.50;99.90;;;;;;5115226;29;20456;-51
2022/01/16 03:56:04;;;;;;;17.93;6.17;;;1.30;99.90;;;;;;5126549;28;20465;-50
2022/01/16 03:58:34;;;;;;;16.33;5.70;;;1.40;99.90;;;;;;5124348;28;20305;-49
2022/01/16 04:01:05;;;;;;;17.10;6.90;;;1.30;99.90;;;;;;5122022;28;20191;-49
2022/01/16 04:03:35;;;;;;;18.40;6.67;;;1.20;99.90;;;;;;5135691;28;20637;-49
2022/01/16 04:06:06;;;;;;;16.73;6.73;;;1.20;99.90;;;;;;5103772;29;20213;-50
2022/01/16 04:08:36;;;;;;;29.00;7.27;;;1.10;99.90;;;;;;5127316;28;20638;-49
2022/01/16 04:11:08;;;;;;;21.43;5.40;;;1.10;99.90;;;;;;5108117;29;20191;-49
2022/01/16 04:13:47;;;;;;;38.30;8.00;;;1.20;99.90;;;;;;5110105;28;20194;-50
2022/01/16 04:16:20;;;;;;;25.80;6.73;;;1.10;99.90;;;;;;5124336;28;20473;-50
2022/01/16 04:18:51;;;;;;;36.33;8.37;;;1.10;99.90;;;;;;5120030;28;21358;-51
2022/01/16 04:21:25;;;;;;;26.40;7.63;;;1.00;99.90;;;;;;5105662;29;20488;-49
2022/01/16 04:23:57;;;;;;;11.50;6.60;;;1.00;99.90;;;;;;5089753;28;20515;-52
2022/01/16 04:26:28;;;;;;;24.43;6.90;;;1.00;99.90;;;;;;5108178;29;20464;-49
2022/01/16 04:28:58;;;;;;;23.47;7.27;;;1.00;99.90;;;;;;5121015;28;20449;-49
2022/01/16 04:31:29;;;;;;;24.60;7.70;;;1.00;99.90;;;;;;5122515;28;20194;-51
2022/01/16 04:34:00;;;;;;;31.03;8.70;;;1.00;99.90;;;;;;5125279;28;20207;-50
2022/01/16 04:36:30;;;;;;;42.17;7.23;;;0.90;99.90;;;;;;5130682;29;20218;-49
2022/01/16 04:39:01;;;;;;;20.57;6.70;;;0.80;99.90;;;;;;5126511;28;20204;-51
2022/01/16 04:44:21;;;;;;;32.37;9.60;;;0.90;99.90;;;;;;5123555;28;20434;-49
2022/01/16 04:46:52;;;;;;;36.30;7.80;;;0.70;99.90;;;;;;5105654;29;20454;-50
2022/01/16 04:49:23;;;;;;;24.90;8.07;;;0.70;99.90;;;;;;5117096;29;20236;-50
2022/01/16 04:51:55;;;;;;;27.40;7.03;;;0.70;99.90;;;;;;5125552;28;20455;-49
2022/01/16 04:54:25;;;;;;;33.53;7.57;;;0.70;99.90;;;;;;5110405;28;20474;-50
2022/01/16 04:56:56;;;;;;;22.40;6.43;;;0.70;99.90;;;;;;5125257;28;20492;-50
2022/01/16 04:59:27;;;;;;;42.70;7.67;;;0.70;99.90;;;;;;5125408;28;20178;-50
2022/01/16 05:01:57;;;;;;;33.77;8.27;;;0.60;99.90;;;;;;5124512;28;20180;-49
2022/01/16 05:04:28;;;;;;;13.67;5.63;;;0.70;99.90;;;;;;5124360;28;20567;-50
2022/01/16 05:06:58;;;;;;;23.87;6.27;;;0.80;99.90;;;;;;5125515;28;20710;-50
2022/01/16 05:09:29;;;;;;;20.27;6.10;;;0.70;99.90;;;;;;5120927;29;20187;-50
2022/01/16 05:12:02;;;;;;;34.13;6.83;;;0.70;99.90;;;;;;5125150;28;20210;-49
2022/01/16 05:17:22;;;;;;;12.30;6.47;;;0.70;99.90;;;;;;5121368;28;20503;-49
2022/01/16 05:19:52;;;;;;;24.40;7.17;;;0.70;99.90;;;;;;5106627;29;20445;-50
2022/01/16 05:22:23;;;;;;;30.87;6.80;;;0.70;99.90;;;;;;5111200;29;20185;-49
2022/01/16 05:24:54;;;;;;;27.60;7.63;;;0.70;99.90;;;;;;5125575;28;20181;-49
2022/01/16 05:27:24;;;;;;;33.10;6.57;;;0.60;99.90;;;;;;5131502;28;20220;-50
2022/01/16 05:29:55;;;;;;;18.63;5.87;;;0.60;99.90;;;;;;5124573;28;20197;-49
2022/01/16 05:32:25;;;;;;;29.70;6.77;;;0.70;99.90;;;;;;5107646;29;20194;-50
2022/01/16 05:34:56;;;;;;;25.67;6.47;;;0.60;99.90;;;;;;5125261;28;20639;-51
2022/01/16 05:37:27;;;;;;;29.03;6.70;;;0.50;99.90;;;;;;5120815;28;20309;-50
2022/01/16 05:39:58;;;;;;;27.23;6.37;;;0.50;99.90;;;;;;5109685;29;20229;-49
2022/01/16 05:42:29;;;;;;;43.43;7.60;;;0.50;99.90;;;;;;5103640;29;20466;-50
2022/01/16 05:45:00;;;;;;;25.93;6.60;;;0.50;99.90;;;;;;5121153;28;20536;-49
2022/01/16 05:47:31;;;;;;;26.23;7.70;;;0.60;99.90;;;;;;5127339;28;20452;-50
2022/01/16 05:50:02;;;;;;;23.43;7.57;;;0.60;99.90;;;;;;5130178;28;20437;-51
2022/01/16 05:52:32;;;;;;;24.40;7.70;;;0.60;99.90;;;;;;5111912;29;20556;-49
2022/01/16 05:55:03;;;;;;;31.87;7.50;;;0.50;99.90;;;;;;5127038;28;20193;-49
2022/01/16 05:57:34;;;;;;;14.57;7.00;;;0.70;99.90;;;;;;5127567;28;20222;-49
2022/01/16 06:00:07;;;;;;;30.67;8.43;;;0.60;99.90;;;;;;5101947;28;20448;-50
2022/01/16 06:02:37;;;;;;;21.37;7.00;;;0.70;99.90;;;;;;5122908;28;20621;-49
2022/01/16 06:05:09;;;;;;;17.83;7.20;;;0.60;99.90;;;;;;5126953;28;20515;-49
2022/01/16 06:07:44;;;;;;;23.67;7.17;;;0.50;99.90;;;;;;5114832;29;20552;-48
2022/01/16 06:10:15;;;;;;;23.07;7.80;;;0.40;99.90;;;;;;5124080;28;20525;-49
2022/01/16 06:12:46;;;;;;;25.77;7.60;;;0.30;99.90;;;;;;5110012;29;20514;-50
2022/01/16 06:15:16;;;;;;;30.77;9.30;;;0.30;99.90;;;;;;5125485;28;20190;-50
2022/01/16 06:17:47;;;;;;;20.73;8.27;;;0.30;99.90;;;;;;5126830;29;20465;-50
2022/01/16 06:20:18;;;;;;;22.47;8.90;;;0.30;99.90;;;;;;5124071;28;20205;-49
2022/01/16 06:22:49;;;;;;;28.43;9.33;;;0.40;99.90;;;;;;5108091;29;20184;-50
2022/01/16 06:25:20;;;;;;;29.13;8.60;;;0.30;99.90;;;;;;5109399;29;20181;-49
2022/01/16 06:27:51;;;;;;;16.47;7.80;;;0.40;99.90;;;;;;5128458;29;20861;-49
2022/01/16 06:30:21;;;;;;;29.97;8.63;;;0.30;99.90;;;;;;5124728;28;20490;-49
2022/01/16 06:32:52;;;;;;;27.27;9.93;;;0.30;99.90;;;;;;5112598;29;20188;-49
2022/01/16 06:35:23;;;;;;;24.47;9.73;;;0.40;99.90;;;;;;5103880;28;20220;-50
2022/01/16 06:37:53;;;;;;;25.60;9.50;;;0.30;99.90;;;;;;5120446;28;20213;-48
2022/01/16 06:40:24;;;;;;;22.43;9.00;;;0.30;99.90;;;;;;5109898;28;20184;-51
2022/01/16 06:42:54;;;;;;;30.70;9.53;;;0.40;99.90;;;;;;5123452;28;20186;-50
2022/01/16 06:45:25;;;;;;;23.80;10.50;;;0.30;99.90;;;;;;5106112;28;20266;-48
2022/01/16 06:47:56;;;;;;;36.77;11.40;;;0.20;99.90;;;;;;5127921;28;20206;-50
2022/01/16 06:50:26;;;;;;;26.33;10.23;;;0.20;99.90;;;;;;5124898;29;20487;-52
2022/01/16 06:52:57;;;;;;;25.77;12.13;;;0.20;99.90;;;;;;5109710;29;20184;-50
2022/01/16 06:55:27;;;;;;;24.47;10.20;;;0.10;99.90;;;;;;5124263;28;20217;-50
2022/01/16 06:57:58;;;;;;;22.33;10.93;;;0.10;99.90;;;;;;5123754;28;20213;-50
2022/01/16 07:00:29;;;;;;;25.30;11.97;;;0.00;99.90;;;;;;5115835;28;20185;-50
2022/01/16 07:02:59;;;;;;;23.63;11.20;;;0.10;99.90;;;;;;5122631;28;20206;-49
2022/01/16 07:05:29;;;;;;;23.93;12.40;;;0.10;99.90;;;;;;5125281;28;20263;-49
2022/01/16 07:08:00;;;;;;;24.63;10.03;;;0.20;99.90;;;;;;5105008;29;20182;-50
2022/01/16 07:10:31;;;;;;;22.23;11.23;;;0.10;99.90;;;;;;5122241;28;20509;-50
2022/01/16 07:13:01;;;;;;;23.30;11.23;;;0.10;99.90;;;;;;5119735;28;20197;-48
2022/01/16 07:15:32;;;;;;;20.87;9.77;;;0.10;99.90;;;;;;5121956;28;20271;-49
2022/01/16 07:18:03;;;;;;;19.80;11.30;;;0.10;99.90;;;;;;5114086;29;20210;-50
2022/01/16 07:20:34;;;;;;;26.13;13.33;;;0.10;99.90;;;;;;5121748;28;20525;-50
2022/01/16 07:23:05;;;;;;;25.60;10.70;;;0.20;99.90;;;;;;5107331;29;20450;-49
2022/01/16 07:25:36;;;;;;;23.50;11.23;;;0.10;99.90;;;;;;5091866;28;20206;-49
2022/01/16 07:28:07;;;;;;;24.77;11.00;;;0.10;99.90;;;;;;5111716;29;20984;-48
2022/01/16 07:30:38;;;;;;;37.60;11.80;;;0.10;99.90;;;;;;5121000;28;20455;-50
2022/01/16 07:33:09;;;;;;;26.43;11.53;;;0.10;99.90;;;;;;5106385;28;20537;-50
2022/01/16 07:35:40;;;;;;;22.30;11.47;;;0.10;99.90;;;;;;5126425;28;20477;-50
2022/01/16 07:38:10;;;;;;;37.07;13.43;;;0.20;99.90;;;;;;5109982;28;20281;-49
2022/01/16 07:40:41;;;;;;;21.90;11.37;;;0.20;99.90;;;;;;5122453;28;20211;-50
2022/01/16 07:43:13;;;;;;;22.97;12.00;;;0.30;99.90;;;;;;5121367;28;20189;-50
2022/01/16 07:45:43;;;;;;;33.70;13.20;;;0.30;99.90;;;;;;5107846;28;20268;-51
2022/01/16 07:48:14;;;;;;;21.37;10.53;;;0.30;99.90;;;;;;5124099;28;20943;-48
2022/01/16 07:50:44;;;;;;;35.77;12.83;;;0.40;99.90;;;;;;5122272;28;20715;-49
2022/01/16 07:53:15;;;;;;;24.83;12.63;;;0.40;99.90;;;;;;5126406;29;20205;-49
2022/01/16 07:55:45;;;;;;;20.60;12.40;;;0.50;99.90;;;;;;5116277;28;20307;-50
2022/01/16 07:58:16;;;;;;;22.63;12.93;;;0.60;99.90;;;;;;5125048;29;20210;-50
2022/01/16 08:00:46;;;;;;;23.67;11.00;;;0.70;99.90;;;;;;5110971;29;20570;-50
2022/01/16 08:03:17;;;;;;;23.57;13.13;;;0.70;99.90;;;;;;5110354;28;20214;-50
2022/01/16 08:05:48;;;;;;;20.83;12.93;;;0.90;99.90;;;;;;5125356;28;20270;-50
2022/01/16 08:08:19;;;;;;;29.43;14.13;;;0.90;99.90;;;;;;5107937;29;20537;-53
2022/01/16 08:10:49;;;;;;;22.77;13.27;;;1.00;99.90;;;;;;5121912;29;20191;-51
2022/01/16 08:13:20;;;;;;;27.93;13.60;;;1.10;99.90;;;;;;5103903;29;20555;-50
2022/01/16 08:15:50;;;;;;;24.93;13.73;;;1.10;99.90;;;;;;5122512;28;20213;-50
2022/01/16 08:18:21;;;;;;;20.13;12.43;;;1.10;99.90;;;;;;5106195;29;20211;-49
2022/01/16 08:20:51;;;;;;;26.40;15.50;;;1.20;99.90;;;;;;5128569;28;20186;-49
2022/01/16 08:23:22;;;;;;;43.57;15.37;;;1.20;99.90;;;;;;5128642;29;20536;-51
2022/01/16 08:25:53;;;;;;;21.03;12.53;;;1.30;99.90;;;;;;5119304;28;20210;-51
2022/01/16 08:28:24;;;;;;;34.10;13.73;;;1.40;99.90;;;;;;5096965;29;20276;-51
2022/01/16 08:30:54;;;;;;;33.77;13.73;;;1.40;99.90;;;;;;5106657;29;20277;-52
2022/01/16 08:33:25;;;;;;;28.27;13.57;;;1.50;99.90;;;;;;5109375;29;20532;-50
2022/01/16 08:35:55;;;;;;;26.53;12.80;;;1.60;99.90;;;;;;5124079;28;20694;-50
2022/01/16 08:38:27;;;;;;;26.17;13.97;;;1.60;99.90;;;;;;5112019;28;20646;-51
2022/01/16 08:40:57;;;;;;;32.53;13.97;;;1.70;99.90;;;;;;5122256;28;20185;-50
2022/01/16 08:43:29;;;;;;;25.40;12.47;;;1.80;99.90;;;;;;5126226;28;20505;-52
2022/01/16 08:45:59;;;;;;;37.27;13.60;;;1.80;99.90;;;;;;5123077;28;20301;-51
2022/01/16 08:48:30;;;;;;;25.93;13.87;;;1.90;99.90;;;;;;5118864;28;20535;-50
2022/01/16 08:51:01;;;;;;;25.30;13.83;;;1.90;99.90;;;;;;5108998;29;20271;-50
2022/01/16 08:53:32;;;;;;;20.23;13.23;;;2.00;99.90;;;;;;5120745;28;20263;-49
2022/01/16 08:56:05;;;;;;;28.87;14.13;;;2.10;99.90;;;;;;5119901;28;20479;-51
2022/01/16 08:58:35;;;;;;;29.00;14.90;;;2.10;99.90;;;;;;5120841;28;20476;-51
2022/01/16 09:01:06;;;;;;;17.17;11.67;;;2.20;99.90;;;;;;5123252;28;20438;-52
2022/01/16 09:03:38;;;;;;;31.40;14.97;;;2.40;99.90;;;;;;5124468;28;20174;-51
2022/01/16 09:06:09;;;;;;;22.90;14.27;;;2.40;99.90;;;;;;5101719;29;20211;-51
2022/01/16 09:08:40;;;;;;;22.77;13.30;;;2.50;99.90;;;;;;5123380;29;20449;-50
2022/01/16 09:11:10;;;;;;;23.80;13.23;;;2.50;99.90;;;;;;5117270;28;20174;-50
2022/01/16 09:13:41;;;;;;;29.87;13.30;;;2.50;99.90;;;;;;5105003;28;20544;-50
2022/01/16 09:16:11;;;;;;;48.60;15.10;;;2.70;99.90;;;;;;5123432;28;20198;-50
2022/01/16 09:18:42;;;;;;;30.83;14.47;;;2.70;99.90;;;;;;5103624;29;20216;-52
2022/01/16 09:21:12;;;;;;;25.10;14.33;;;2.70;99.90;;;;;;5124206;28;20183;-51
2022/01/16 09:23:45;;;;;;;29.47;14.33;;;2.70;99.90;;;;;;5118564;28;20655;-50
2022/01/16 09:26:15;;;;;;;36.07;14.07;;;2.80;99.90;;;;;;5100835;29;20595;-50
2022/01/16 09:28:46;;;;;;;37.40;14.40;;;2.80;99.90;;;;;;5102148;28;20441;-52
2022/01/16 09:31:16;;;;;;;19.77;11.40;;;2.80;99.90;;;;;;5119368;28;20183;-51
2022/01/16 09:33:47;;;;;;;20.70;12.00;;;2.80;99.90;;;;;;5103060;28;20201;-50
2022/01/16 09:36:18;;;;;;;24.53;13.97;;;2.90;99.90;;;;;;5104063;23;20281;-48
2022/01/16 09:38:48;;;;;;;29.87;13.80;;;3.00;99.90;;;;;;5130000;28;20206;-49
2022/01/16 09:41:20;;;;;;;19.40;12.90;;;3.10;99.90;;;;;;5134518;28;20220;-47
2022/01/16 09:43:51;;;;;;;28.03;14.10;;;3.10;99.90;;;;;;5147131;28;20185;-47
2022/01/16 09:46:22;;;;;;;21.77;13.27;;;3.10;99.90;;;;;;5134481;28;20465;-48
2022/01/16 09:48:53;;;;;;;30.50;13.40;;;3.20;99.90;;;;;;5123592;28;20454;-49
2022/01/16 09:51:24;;;;;;;20.87;14.17;;;3.20;99.90;;;;;;5111886;28;20482;-47
2022/01/16 09:53:54;;;;;;;24.97;12.53;;;3.20;99.90;;;;;;5115003;28;20229;-50
2022/01/16 09:56:25;;;;;;;20.80;12.47;;;3.40;99.90;;;;;;5127363;28;20301;-48
2022/01/16 09:58:55;;;;;;;18.07;12.07;;;3.30;99.90;;;;;;5115596;28;20203;-48
2022/01/16 10:01:26;;;;;;;20.10;12.00;;;3.40;99.90;;;;;;5117099;28;20189;-50
2022/01/16 10:03:56;;;;;;;23.50;13.50;;;3.50;99.90;;;;;;5110679;28;20245;-49
2022/01/16 10:06:27;;;;;;;20.70;13.90;;;3.70;99.90;;;;;;5117553;28;20205;-47
2022/01/16 10:08:57;;;;;;;20.70;13.27;;;3.60;99.90;;;;;;5133788;28;20678;-48
2022/01/16 10:11:36;;;;;;;18.30;11.97;;;3.60;99.90;;;;;;5115207;28;20545;-48
2022/01/16 10:14:20;;;;;;;23.57;13.37;;;3.60;99.90;;;;;;5122489;28;20182;-48
2022/01/16 10:16:51;;;;;;;28.03;14.07;;;3.60;99.90;;;;;;5116104;28;20446;-49
2022/01/16 10:19:27;;;;;;;25.30;13.37;;;3.50;99.90;;;;;;5115619;28;20493;-48
2022/01/16 10:22:07;;;;;;;22.20;13.70;;;3.50;99.90;;;;;;5113410;29;20182;-48
2022/01/16 10:24:39;;;;;;;23.20;13.93;;;3.60;99.90;;;;;;5115669;28;20445;-47
2022/01/16 10:27:17;;;;;;;29.53;16.50;;;3.40;99.90;;;;;;5131322;28;20805;-50
2022/01/16 10:29:51;;;;;;;29.00;16.40;;;3.30;99.90;;;;;;5120361;29;20552;-47
2022/01/16 10:32:25;;;;;;;34.53;17.93;;;3.00;99.90;;;;;;5117188;28;20435;-48
2022/01/16 10:35:09;;;;;;;33.97;18.27;;;2.90;99.90;;;;;;5134874;28;20481;-47
2022/01/16 10:37:43;;;;;;;29.73;17.40;;;2.70;99.90;;;;;;5130830;28;20803;-49
2022/01/16 10:40:19;;;;;;;31.67;18.17;;;2.50;99.90;;;;;;5112876;28;20917;-49
2022/01/16 10:42:57;;;;;;;34.10;18.10;;;2.40;99.90;;;;;;5113503;28;20438;-48
2022/01/16 10:45:29;;;;;;;31.00;17.20;;;2.10;99.90;;;;;;5114208;28;20517;-47
2022/01/16 10:48:01;;;;;;;30.83;18.90;;;1.80;99.90;;;;;;5110021;28;20787;-48
2022/01/16 10:50:35;;;;;;;41.47;19.50;;;1.80;99.90;;;;;;5127769;28;20719;-47
2022/01/16 10:53:15;;;;;;;31.17;17.87;;;1.60;99.90;;;;;;5110830;28;20497;-48
2022/01/16 10:55:57;;;;;;;29.93;18.07;;;1.50;99.90;;;;;;5117341;28;21125;-47
2022/01/16 10:58:43;;;;;;;35.70;19.60;;;1.60;99.90;;;;;;5117033;28;20485;-48
2022/01/16 11:01:16;;;;;;;36.67;18.80;;;1.60;99.90;;;;;;5112196;28;20433;-49
2022/01/16 11:03:49;;;;;;;34.83;18.73;;;1.70;99.90;;;;;;5117701;28;20442;-48
2022/01/16 11:06:23;;;;;;;35.57;18.87;;;1.70;99.90;;;;;;5112611;28;20471;-49
2022/01/16 11:08:57;;;;;;;38.47;20.60;;;1.80;99.90;;;;;;5133282;28;20437;-49
2022/01/16 11:11:28;;;;;;;37.20;20.20;;;1.70;99.90;;;;;;5115685;28;20469;-48
2022/01/16 11:14:04;;;;;;;44.93;21.60;;;1.80;99.90;;;;;;5111841;28;20522;-49
2022/01/16 11:16:35;;;;;;;37.30;20.17;;;1.70;99.90;;;;;;5112811;28;20206;-51
2022/01/16 11:19:08;;;;;;;42.60;21.60;;;1.80;99.90;;;;;;5114731;28;21003;-50
2022/01/16 11:21:43;;;;;;;42.00;20.20;;;1.70;99.90;;;;;;5115131;29;20438;-49
2022/01/16 11:26:51;;;;;;;49.90;22.80;;;1.80;99.90;;;;;;5114913;28;20465;-50
2022/01/16 11:29:22;;;;;;;53.77;23.73;;;1.80;99.90;;;;;;5107235;28;20446;-49
2022/01/16 11:31:55;;;;;;;39.23;22.33;;;1.80;99.90;;;;;;5113743;28;20541;-49
2022/01/16 11:34:28;;;;;;;33.97;20.53;;;1.90;99.90;;;;;;5112595;28;20449;-48
2022/01/16 11:36:59;;;;;;;40.20;22.60;;;1.80;99.90;;;;;;5113788;28;20488;-51
2022/01/16 11:39:37;;;;;;;45.27;22.00;;;1.80;99.90;;;;;;5116381;28;20472;-50
2022/01/16 11:42:20;;;;;;;40.10;21.43;;;1.80;99.90;;;;;;5081282;28;20540;-50
2022/01/16 11:44:54;;;;;;;40.03;21.30;;;1.80;99.90;;;;;;5098891;29;20544;-50
2022/01/16 11:47:24;;;;;;;36.93;22.07;;;1.80;99.90;;;;;;5117058;29;20489;-49
2022/01/16 11:50:06;;;;;;;43.40;21.70;;;1.90;99.90;;;;;;5113466;28;20499;-49
2022/01/16 11:52:41;;;;;;;53.83;22.67;;;1.90;99.90;;;;;;5117538;28;20301;-48
2022/01/16 11:55:12;;;;;;;46.77;23.60;;;1.90;99.90;;;;;;5120327;28;20445;-50
2022/01/16 11:57:56;;;;;;;47.20;25.33;;;2.00;99.90;;;;;;5120181;28;20560;-49
2022/01/16 12:00:42;;;;;;;42.87;25.07;;;2.10;99.90;;;;;;5099597;28;20523;-49
2022/01/16 12:03:32;;;;;;;49.60;26.53;;;2.20;99.90;;;;;;5099765;28;20442;-50
2022/01/16 12:06:37;;;;;;;41.33;24.40;;;2.20;99.90;;;;;;5117897;28;20615;-49
2022/01/16 12:09:38;;;;;;;44.47;25.27;;;2.40;99.90;;;;;;5079229;28;21208;-49
2022/01/16 12:12:11;;;;;;;41.20;24.23;;;2.50;99.90;;;;;;5105855;29;20437;-51
2022/01/16 12:14:48;;;;;;;42.03;24.80;;;2.60;99.90;;;;;;5122578;28;20448;-49
2022/01/16 12:17:31;;;;;;;41.23;23.63;;;2.70;99.90;;;;;;5121056;28;20481;-49
2022/01/16 12:20:14;;;;;;;48.13;23.27;;;2.70;99.90;;;;;;5114761;28;20505;-50
2022/01/16 12:22:46;;;;;;;37.83;21.20;;;2.80;99.90;;;;;;5117179;28;20444;-49
2022/01/16 12:25:24;;;;;;;43.70;22.33;;;2.80;99.90;;;;;;5098453;28;20449;-51
2022/01/16 12:28:14;;;;;;;36.60;22.17;;;2.90;99.90;;;;;;5101321;28;20468;-52
2022/01/16 12:30:59;;;;;;;38.90;22.90;;;2.90;99.90;;;;;;5094072;29;20556;-50
2022/01/16 12:33:37;;;;;;;42.13;23.70;;;2.90;99.90;;;;;;5096784;28;20445;-51
2022/01/16 12:36:14;;;;;;;34.27;21.17;;;2.90;99.90;;;;;;5103156;28;20495;-50
2022/01/16 12:38:48;;;;;;;45.20;21.47;;;3.00;99.90;;;;;;5130745;28;20535;-49
2022/01/16 12:41:25;;;;;;;43.60;22.00;;;3.10;99.90;;;;;;5127700;28;20452;-51
2022/01/16 12:44:05;;;;;;;36.03;19.33;;;3.10;99.90;;;;;;5124218;28;20428;-50
2022/01/16 12:46:42;;;;;;;26.70;16.63;;;3.10;99.90;;;;;;5144069;28;20464;-48
2022/01/16 12:49:26;;;;;;;31.33;18.60;;;3.20;99.90;;;;;;5140547;28;20475;-49
2022/01/16 12:51:58;;;;;;;42.87;19.80;;;3.20;99.90;;;;;;5141364;28;21012;-48
2022/01/16 12:54:30;;;;;;;43.73;20.00;;;3.10;99.90;;;;;;5143907;28;20527;-50
2022/01/16 12:57:02;;;;;;;35.83;19.30;;;3.20;99.90;;;;;;5140636;28;20819;-50
2022/01/16 12:59:36;;;;;;;33.43;17.40;;;3.20;99.90;;;;;;5147086;28;20964;-50
2022/01/16 13:02:08;;;;;;;33.17;16.83;;;3.30;99.90;;;;;;5127462;28;20439;-50
2022/01/16 13:04:43;;;;;;;34.70;17.07;;;3.30;99.90;;;;;;5127586;28;20433;-51
2022/01/16 13:07:15;;;;;;;38.73;18.20;;;3.30;99.90;;;;;;5130093;28;20460;-50
2022/01/16 13:09:46;;;;;;;30.33;17.57;;;3.40;99.90;;;;;;5144779;28;20437;-50
2022/01/16 13:12:17;;;;;;;36.60;18.60;;;3.40;99.90;;;;;;5123905;28;20452;-50
2022/01/16 13:14:47;;;;;;;36.63;20.17;;;3.30;99.90;;;;;;5127096;28;20684;-50
2022/01/16 13:17:18;;;;;;;37.90;19.90;;;3.20;99.90;;;;;;5141746;28;20723;-50
2022/01/16 13:22:25;;;;;;;36.93;21.30;;;2.90;99.90;;;;;;5138910;28;20438;-49
2022/01/16 13:25:02;;;;;;;48.10;21.10;;;2.90;99.90;;;;;;5139554;28;20183;-50
2022/01/16 13:27:34;;;;;;;50.30;20.90;;;3.10;99.90;;;;;;5133226;28;20453;-50
2022/01/16 13:30:10;;;;;;;38.53;21.90;;;3.20;99.90;;;;;;5133849;28;20472;-49
2022/01/16 13:32:42;;;;;;;54.80;23.07;;;3.20;99.90;;;;;;5098214;28;20496;-50
2022/01/16 13:35:26;;;;;;;46.03;21.97;;;3.20;99.90;;;;;;5134718;28;20456;-49
2022/01/16 13:38:05;;;;;;;46.40;23.33;;;3.20;99.90;;;;;;5114461;28;20990;-51
2022/01/16 13:40:37;;;;;;;48.63;23.93;;;3.20;99.90;;;;;;5096929;29;20448;-52
2022/01/16 13:43:12;;;;;;;57.23;24.73;;;3.10;99.90;;;;;;5116588;28;20522;-48
2022/01/16 13:45:45;;;;;;;43.53;23.30;;;3.00;99.90;;;;;;5116987;28;20437;-48
2022/01/16 13:48:22;;;;;;;45.47;24.13;;;3.10;99.90;;;;;;5096238;28;20981;-50
2022/01/16 13:50:58;;;;;;;49.40;26.20;;;3.00;99.90;;;;;;5103486;29;20442;-50
2022/01/16 13:53:35;;;;;;;54.53;23.73;;;3.00;99.90;;;;;;5122332;28;20456;-49